Time;durP1;ratioP1;P1;durP2;ratioP2;P2;SDS_P1;SDS_P2;PMS_P1;PMS_P2;Temp;Humidity;BMP_temperature;BMP_pressure;BME280_temperature;BME280_humidity;BME280_pressure;Samples;Min_cycle;Max_cycle;Signal;HPM_P1;HPM_P2
2024/02/24 00:01:59;;;;;;;;;;;;;;;18.41;60.70;100576.47;7394442;19;1801;-76
2024/02/24 00:04:28;;;;;;;;;;;;;;;18.50;60.58;100567.59;7395738;19;1664;-75
2024/02/24 00:06:57;;;;;;;;;;;;;;;18.49;60.54;100571.28;7397433;19;1730;-76
2024/02/24 00:09:26;;;;;;;;;;;;;;;18.52;60.31;100571.00;7395955;19;1851;-76
2024/02/24 00:11:54;;;;;;;;;;;;;;;18.48;60.37;100559.72;7396517;19;1114;-76
2024/02/24 00:14:25;;;;;;;;;;;;;;;18.49;60.35;100558.72;7395298;19;1504;-75
2024/02/24 00:16:54;;;;;;;;;;;;;;;18.46;60.53;100574.22;7394610;19;1919;-76
2024/02/24 00:19:22;;;;;;;;;;;;;;;18.44;60.55;100562.78;7383282;19;1422;-76
2024/02/24 00:21:51;;;;;;;;;;;;;;;18.38;60.58;100553.50;7390984;19;1397;-76
2024/02/24 00:24:19;;;;;;;;;;;;;;;18.48;60.43;100569.56;7395523;19;1485;-75
2024/02/24 00:26:47;;;;;;;;;;;;;;;18.46;60.61;100560.81;7395746;19;1983;-76
2024/02/24 00:29:16;;;;;;;;;;;;;;;18.43;60.59;100545.06;7394448;19;1874;-76
2024/02/24 00:31:47;;;;;;;;;;;;;;;18.48;60.49;100566.88;7392813;19;1605;-76
2024/02/24 00:34:15;;;;;;;;;;;;;;;18.42;60.65;100548.69;7395593;19;1697;-77
2024/02/24 00:36:43;;;;;;;;;;;;;;;18.44;60.62;100549.41;7395439;19;1219;-77
2024/02/24 00:39:12;;;;;;;;;;;;;;;18.40;60.58;100550.66;7394740;19;1591;-76
2024/02/24 00:41:40;;;;;;;;;;;;;;;18.36;60.82;100534.03;7394960;19;1441;-76
2024/02/24 00:44:09;;;;;;;;;;;;;;;18.39;60.74;100552.50;7390925;19;1461;-76
2024/02/24 00:46:37;;;;;;;;;;;;;;;18.41;60.54;100539.81;7393201;19;1615;-76
2024/02/24 00:49:08;;;;;;;;;;;;;;;18.44;60.25;100552.09;7394180;19;1422;-77
2024/02/24 00:51:37;;;;;;;;;;;;;;;18.43;60.54;100563.78;7389443;19;1845;-76
2024/02/24 00:54:05;;;;;;;;;;;;;;;18.44;60.50;100557.44;7394428;19;1756;-76
2024/02/24 00:56:34;;;;;;;;;;;;;;;18.44;60.38;100541.38;7393742;19;1600;-77
2024/02/24 00:59:02;;;;;;;;;;;;;;;18.41;60.42;100552.38;7393943;19;1402;-76
2024/02/24 01:01:30;;;;;;;;;;;;;;;18.41;60.37;100552.38;7394124;19;1602;-75
2024/02/24 01:03:59;;;;;;;;;;;;;;;18.35;60.49;100558.28;7393185;19;1005;-76
2024/02/24 01:06:30;;;;;;;;;;;;;;;18.35;60.44;100543.06;7394138;19;1979;-76
2024/02/24 01:08:58;;;;;;;;;;;;;;;18.35;60.53;100542.22;7393642;19;1414;-76
2024/02/24 01:11:26;;;;;;;;;;;;;;;18.35;60.47;100539.53;7390649;19;1850;-76
2024/02/24 01:13:55;;;;;;;;;;;;;;;18.39;60.31;100538.28;7394120;19;1286;-76
2024/02/24 01:16:23;;;;;;;;;;;;;;;18.42;60.59;100535.31;7391706;19;1841;-76
2024/02/24 01:18:52;;;;;;;;;;;;;;;18.35;60.58;100547.56;7394625;19;1539;-77
2024/02/24 01:21:20;;;;;;;;;;;;;;;18.34;60.57;100552.06;7380467;19;2345;-76
2024/02/24 01:23:51;;;;;;;;;;;;;;;18.29;60.87;100544.44;7393285;19;1562;-76
2024/02/24 01:26:19;;;;;;;;;;;;;;;18.30;60.72;100523.88;7391725;19;1394;-76
2024/02/24 01:28:50;;;;;;;;;;;;;;;18.32;60.69;100547.81;7393224;19;1477;-76
2024/02/24 01:31:19;;;;;;;;;;;;;;;18.31;60.50;100541.63;7391267;19;1827;-76
2024/02/24 01:33:47;;;;;;;;;;;;;;;18.35;60.54;100531.50;7392397;19;1549;-76
2024/02/24 01:36:15;;;;;;;;;;;;;;;18.34;60.49;100524.44;7392894;19;2009;-76
2024/02/24 01:38:44;;;;;;;;;;;;;;;18.34;60.41;100525.28;7392696;19;1484;-75
2024/02/24 01:41:15;;;;;;;;;;;;;;;18.40;60.31;100534.59;7392504;19;1326;-76
2024/02/24 01:43:43;;;;;;;;;;;;;;;18.31;60.68;100536.28;7392452;19;1745;-76
2024/02/24 01:46:13;;;;;;;;;;;;;;;18.29;60.86;100517.69;7392490;19;2043;-76
2024/02/24 01:48:42;;;;;;;;;;;;;;;18.32;60.68;100527.25;7392427;19;1270;-76
2024/02/24 01:51:11;;;;;;;;;;;;;;;18.26;60.83;100522.44;7391217;19;1842;-76
2024/02/24 01:53:41;;;;;;;;;;;;;;;18.32;60.72;100523.75;7392673;19;1623;-76
2024/02/24 01:56:10;;;;;;;;;;;;;;;18.24;61.01;100525.28;7392439;19;1314;-75
2024/02/24 01:58:42;;;;;;;;;;;;;;;18.23;61.07;100528.94;7391744;19;1750;-76
2024/02/24 02:01:10;;;;;;;;;;;;;;;18.05;61.69;100538.59;7392083;19;1921;-75
2024/02/24 02:03:39;;;;;;;;;;;;;;;18.04;62.03;100544.91;7392586;19;1592;-76
2024/02/24 02:06:07;;;;;;;;;;;;;;;18.15;62.04;100538.63;7391783;19;1320;-76
2024/02/24 02:08:35;;;;;;;;;;;;;;;18.21;61.95;100548.78;7392304;19;1840;-76
2024/02/24 02:11:04;;;;;;;;;;;;;;;18.04;62.33;100552.94;7390866;19;1843;-75
2024/02/24 02:13:32;;;;;;;;;;;;;;;18.57;61.23;100581.31;7390666;19;1401;-76
2024/02/24 02:16:03;;;;;;;;;;;;;;;19.36;59.27;100527.63;7390804;19;1524;-75
2024/02/24 02:18:32;;;;;;;;;;;;;;;19.71;58.38;100544.06;7391405;19;1622;-75
2024/02/24 02:21:01;;;;;;;;;;;;;;;19.76;58.26;100531.94;7378700;19;1531;-76
2024/02/24 02:23:32;;;;;;;;;;;;;;;20.03;57.69;100557.13;7391676;19;1030;-76
2024/02/24 02:26:02;;;;;;;;;;;;;;;20.10;57.55;100541.28;7391783;19;1047;-76
2024/02/24 02:28:30;;;;;;;;;;;;;;;20.03;57.59;100552.63;7390876;19;1488;-76
2024/02/24 02:31:00;;;;;;;;;;;;;;;20.09;57.77;100545.78;7389533;19;1877;-75
2024/02/24 02:33:28;;;;;;;;;;;;;;;20.14;57.63;100548.91;7390604;19;1859;-76
2024/02/24 02:35:56;;;;;;;;;;;;;;;20.19;57.47;100549.31;7391436;19;1627;-76
2024/02/24 02:38:25;;;;;;;;;;;;;;;20.12;57.53;100542.81;7392098;19;1647;-76
2024/02/24 02:40:56;;;;;;;;;;;;;;;19.92;57.90;100546.59;7392657;19;1177;-76
2024/02/24 02:43:24;;;;;;;;;;;;;;;19.84;58.25;100558.06;7392464;19;1773;-75
2024/02/24 02:45:53;;;;;;;;;;;;;;;19.79;58.40;100550.41;7393936;19;1584;-76
2024/02/24 02:48:21;;;;;;;;;;;;;;;19.77;58.44;100547.03;7394693;19;1932;-78
2024/02/24 02:50:49;;;;;;;;;;;;;;;19.78;58.70;100564.84;7393147;19;1872;-76
2024/02/24 02:53:18;;;;;;;;;;;;;;;19.74;58.69;100535.78;7395216;19;1631;-75
2024/02/24 02:55:46;;;;;;;;;;;;;;;19.75;58.80;100549.03;7393014;19;2301;-76
2024/02/24 02:58:17;;;;;;;;;;;;;;;19.74;58.84;100552.72;7391597;19;1544;-75
2024/02/24 03:00:47;;;;;;;;;;;;;;;19.73;58.81;100537.59;7392155;19;1152;-76
2024/02/24 03:03:15;;;;;;;;;;;;;;;19.77;58.71;100554.25;7391731;19;1534;-75
2024/02/24 03:05:43;;;;;;;;;;;;;;;19.80;58.63;100552.13;7390140;19;1536;-75
2024/02/24 03:08:12;;;;;;;;;;;;;;;19.81;58.68;100559.16;7390438;19;1360;-75
2024/02/24 03:10:40;;;;;;;;;;;;;;;19.81;58.62;100564.53;7391397;19;1833;-76
2024/02/24 03:13:08;;;;;;;;;;;;;;;19.85;58.61;100549.84;7389598;19;1583;-76
2024/02/24 03:15:39;;;;;;;;;;;;;;;19.89;58.68;100554.91;7387776;19;1768;-77
2024/02/24 03:18:08;;;;;;;;;;;;;;;19.92;58.50;100568.91;7391802;19;1230;-75
2024/02/24 03:20:36;;;;;;;;;;;;;;;19.91;58.50;100558.31;7377206;19;1515;-75
2024/02/24 03:23:04;;;;;;;;;;;;;;;19.91;58.40;100561.81;7391093;19;1240;-75
2024/02/24 03:25:32;;;;;;;;;;;;;;;19.94;58.55;100568.75;7392437;19;1126;-76
2024/02/24 03:28:00;;;;;;;;;;;;;;;19.98;58.42;100559.41;7390891;19;1742;-76
2024/02/24 03:30:28;;;;;;;;;;;;;;;19.98;58.49;100546.00;7389520;19;1869;-76
2024/02/24 03:33:00;;;;;;;;;;;;;;;20.03;58.14;100557.13;7389307;19;1919;-76
2024/02/24 03:35:28;;;;;;;;;;;;;;;19.97;58.45;100563.09;7391049;19;1478;-75
2024/02/24 03:37:56;;;;;;;;;;;;;;;19.94;58.45;100552.66;7387412;19;1140;-76
2024/02/24 03:40:25;;;;;;;;;;;;;;;19.90;58.67;100556.63;7386997;19;1512;-76
2024/02/24 03:42:53;;;;;;;;;;;;;;;19.96;58.45;100553.34;7387450;19;1653;-76
2024/02/24 03:45:21;;;;;;;;;;;;;;;19.96;58.48;100562.25;7390529;19;1113;-76
2024/02/24 03:47:50;;;;;;;;;;;;;;;19.89;58.55;100560.28;7390425;19;1915;-76
2024/02/24 03:50:21;;;;;;;;;;;;;;;19.92;58.73;100565.38;7388805;19;1893;-76
2024/02/24 03:52:50;;;;;;;;;;;;;;;19.97;58.30;100573.81;7389718;19;1042;-75
2024/02/24 03:55:18;;;;;;;;;;;;;;;20.02;58.36;100582.28;7390077;19;1133;-75
2024/02/24 03:57:46;;;;;;;;;;;;;;;20.02;58.42;100582.28;7387752;19;1499;-75
2024/02/24 04:00:15;;;;;;;;;;;;;;;19.83;58.46;100569.75;7389610;19;1516;-75
2024/02/24 04:02:41;;;;;;;;;;;;;;;19.56;59.40;100590.13;7388261;19;1865;-75
2024/02/24 04:05:10;;;;;;;;;;;;;;;19.34;59.78;100593.97;7388259;19;1973;-76
2024/02/24 04:07:41;;;;;;;;;;;;;;;19.22;59.96;100584.38;7387666;19;1825;-76
2024/02/24 04:10:11;;;;;;;;;;;;;;;19.10;60.13;100574.78;7386675;19;1819;-76
2024/02/24 04:12:39;;;;;;;;;;;;;;;19.04;59.94;100595.81;7386015;19;1882;-76
2024/02/24 04:15:08;;;;;;;;;;;;;;;19.00;60.20;100588.16;7387676;19;1477;-75
2024/02/24 04:17:36;;;;;;;;;;;;;;;18.97;60.25;100580.41;7388609;19;1794;-76
2024/02/24 04:20:04;;;;;;;;;;;;;;;18.96;59.98;100605.50;7385234;19;1488;-76
2024/02/24 04:22:33;;;;;;;;;;;;;;;18.85;60.62;100606.50;7396638;19;1611;-76
2024/02/24 04:25:03;;;;;;;;;;;;;;;19.01;60.34;100582.66;7394889;19;1266;-76
2024/02/24 04:27:32;;;;;;;;;;;;;;;19.18;60.04;100593.66;7392042;19;1604;-75
2024/02/24 04:30:00;;;;;;;;;;;;;;;19.41;59.73;100584.34;7393330;19;1622;-75
2024/02/24 04:32:29;;;;;;;;;;;;;;;19.52;59.19;100595.91;7392318;19;1854;-76
2024/02/24 04:34:57;;;;;;;;;;;;;;;19.55;59.24;100590.28;7394888;19;1598;-76
2024/02/24 04:37:26;;;;;;;;;;;;;;;19.59;59.27;100597.03;7395228;19;1250;-75
2024/02/24 04:39:54;;;;;;;;;;;;;;;19.65;58.84;100591.09;7395077;19;1576;-76
2024/02/24 04:42:26;;;;;;;;;;;;;;;19.63;58.95;100588.56;7397827;19;1469;-76
2024/02/24 04:44:54;;;;;;;;;;;;;;;19.64;59.05;100602.84;7395055;19;1132;-75
2024/02/24 04:47:25;;;;;;;;;;;;;;;19.66;58.83;100600.84;7393631;19;1690;-75
2024/02/24 04:49:54;;;;;;;;;;;;;;;19.69;58.95;100608.59;7395172;19;1520;-77
2024/02/24 04:52:22;;;;;;;;;;;;;;;19.71;58.71;100593.22;7392270;19;1878;-75
2024/02/24 04:54:51;;;;;;;;;;;;;;;19.71;58.85;100597.72;7394922;19;1654;-76
2024/02/24 04:57:19;;;;;;;;;;;;;;;19.75;58.82;100616.09;7393458;19;1501;-76
2024/02/24 04:59:50;;;;;;;;;;;;;;;19.72;58.83;100596.78;7396437;19;1257;-76
2024/02/24 05:02:19;;;;;;;;;;;;;;;19.77;58.92;100616.81;7392255;19;1414;-75
2024/02/24 05:04:47;;;;;;;;;;;;;;;19.78;58.79;100621.19;7393647;19;1517;-76
2024/02/24 05:07:15;;;;;;;;;;;;;;;19.77;58.94;100615.97;7392620;19;1406;-75
2024/02/24 05:09:43;;;;;;;;;;;;;;;19.75;58.67;100610.72;7395383;19;1418;-76
2024/02/24 05:12:12;;;;;;;;;;;;;;;19.80;58.59;100615.69;7392393;19;1853;-76
2024/02/24 05:14:40;;;;;;;;;;;;;;;19.76;58.73;100635.75;7394924;19;1196;-76
2024/02/24 05:17:12;;;;;;;;;;;;;;;19.69;58.88;100646.16;7397882;19;1480;-76
2024/02/24 05:19:40;;;;;;;;;;;;;;;19.73;59.06;100631.50;7400895;19;1508;-77
2024/02/24 05:22:09;;;;;;;;;;;;;;;19.70;58.89;100629.09;7396015;19;1513;-76
2024/02/24 05:24:37;;;;;;;;;;;;;;;19.75;58.76;100650.13;7398961;19;1385;-76
2024/02/24 05:27:06;;;;;;;;;;;;;;;19.81;58.71;100654.94;7397496;19;1587;-75
2024/02/24 05:29:34;;;;;;;;;;;;;;;19.74;58.70;100657.34;7396594;19;1436;-76
2024/02/24 05:32:03;;;;;;;;;;;;;;;19.73;58.77;100658.31;7395344;19;1887;-76
2024/02/24 05:34:34;;;;;;;;;;;;;;;19.77;58.79;100670.47;7396013;19;1404;-76
2024/02/24 05:37:02;;;;;;;;;;;;;;;19.73;58.90;100674.44;7396340;19;1493;-75
2024/02/24 05:39:30;;;;;;;;;;;;;;;19.82;58.52;100683.47;7399487;19;1184;-76
2024/02/24 05:41:59;;;;;;;;;;;;;;;19.80;58.70;100707.75;7391385;19;2392;-76
2024/02/24 05:44:27;;;;;;;;;;;;;;;19.13;58.70;100599.47;7392415;19;1524;-75
2024/02/24 05:46:56;;;;;;;;;;;;;;;19.81;58.82;100708.59;7394062;19;1486;-75
2024/02/24 05:49:24;;;;;;;;;;;;;;;19.82;58.52;100711.16;7393643;19;1464;-76
2024/02/24 05:51:55;;;;;;;;;;;;;;;19.79;58.86;100700.69;7392674;19;1844;-76
2024/02/24 05:54:24;;;;;;;;;;;;;;;19.80;58.58;100702.38;7393502;19;1548;-76
2024/02/24 05:56:52;;;;;;;;;;;;;;;19.80;58.67;100718.50;7391131;19;1366;-76
2024/02/24 05:59:21;;;;;;;;;;;;;;;19.77;58.64;100718.75;7389855;19;1235;-76
2024/02/24 06:01:49;;;;;;;;;;;;;;;19.82;58.64;100721.88;7389937;19;1335;-77
2024/02/24 06:04:18;;;;;;;;;;;;;;;19.78;58.85;100723.16;7391290;19;1381;-76
2024/02/24 06:06:48;;;;;;;;;;;;;;;19.64;59.02;100728.91;7391000;19;1146;-75
2024/02/24 06:09:19;;;;;;;;;;;;;;;19.39;59.50;100728.44;7390848;19;1234;-76
2024/02/24 06:11:48;;;;;;;;;;;;;;;19.29;59.96;100741.00;7389236;19;1855;-75
2024/02/24 06:14:16;;;;;;;;;;;;;;;19.20;59.94;100748.03;7390371;19;1347;-76
2024/02/24 06:16:44;;;;;;;;;;;;;;;19.14;60.01;100747.72;7386364;19;1486;-75
2024/02/24 06:19:13;;;;;;;;;;;;;;;18.98;60.42;100748.25;7387651;19;2352;-76
2024/02/24 06:21:41;;;;;;;;;;;;;;;18.91;60.87;100747.94;7375878;19;1488;-76
2024/02/24 06:24:09;;;;;;;;;;;;;;;19.37;59.69;100743.00;7391682;19;1461;-75
2024/02/24 06:26:41;;;;;;;;;;;;;;;19.30;60.05;100748.06;7389092;19;1405;-76
2024/02/24 06:29:09;;;;;;;;;;;;;;;19.14;60.35;100753.97;7392376;19;1492;-75
2024/02/24 06:31:38;;;;;;;;;;;;;;;19.22;60.01;100738.03;7389827;19;1853;-74
2024/02/24 06:34:06;;;;;;;;;;;;;;;19.13;60.26;100754.09;7390081;19;1442;-75
2024/02/24 06:36:35;;;;;;;;;;;;;;;19.08;60.11;100747.31;7389826;19;1532;-75
2024/02/24 06:39:03;;;;;;;;;;;;;;;19.08;60.55;100744.63;7388336;19;1543;-75
2024/02/24 06:41:32;;;;;;;;;;;;;;;19.58;59.40;100765.19;7388515;19;1540;-75
2024/02/24 06:44:02;;;;;;;;;;;;;;;19.56;59.46;100763.66;7390211;19;1245;-76
2024/02/24 06:46:31;;;;;;;;;;;;;;;19.41;59.68;100739.88;7389151;19;1237;-75
2024/02/24 06:48:59;;;;;;;;;;;;;;;19.20;60.13;100752.53;7390822;19;1121;-76
2024/02/24 06:51:27;;;;;;;;;;;;;;;19.19;60.33;100746.34;7389010;19;2257;-75
2024/02/24 06:53:56;;;;;;;;;;;;;;;19.12;60.70;100752.38;7390225;19;1449;-75
2024/02/24 06:56:24;;;;;;;;;;;;;;;19.27;61.00;100764.41;7388967;19;2373;-75
2024/02/24 06:58:53;;;;;;;;;;;;;;;19.64;59.96;100747.69;7388156;19;1331;-76
2024/02/24 07:01:26;;;;;;;;;;;;;;;19.76;59.17;100764.53;7391068;19;1516;-76
2024/02/24 07:03:55;;;;;;;;;;;;;;;19.63;59.59;100749.50;7392177;19;1570;-75
2024/02/24 07:06:23;;;;;;;;;;;;;;;19.62;59.83;100757.72;7391114;19;1608;-76
2024/02/24 07:08:51;;;;;;;;;;;;;;;19.93;58.94;100747.72;7387458;19;1465;-75
2024/02/24 07:11:20;;;;;;;;;;;;;;;20.20;58.37;100746.97;7390732;19;1528;-75
2024/02/24 07:13:48;;;;;;;;;;;;;;;20.04;58.67;100741.34;7389273;19;1857;-75
2024/02/24 07:16:16;;;;;;;;;;;;;;;19.83;59.36;100749.56;7389722;19;1323;-75
2024/02/24 07:18:47;;;;;;;;;;;;;;;19.60;60.16;100759.69;7388784;19;1492;-76
2024/02/24 07:21:16;;;;;;;;;;;;;;;19.89;59.26;100759.72;7378080;19;1474;-76
2024/02/24 07:23:44;;;;;;;;;;;;;;;20.26;58.34;100734.81;7389328;19;1203;-76
2024/02/24 07:26:12;;;;;;;;;;;;;;;20.50;58.07;100731.66;7389587;19;1249;-75
2024/02/24 07:28:42;;;;;;;;;;;;;;;20.85;57.22;100731.00;7390810;19;1820;-75
2024/02/24 07:31:10;;;;;;;;;;;;;;;20.99;56.74;100736.84;7387560;19;1480;-75
2024/02/24 07:33:39;;;;;;;;;;;;;;;21.01;56.84;100734.88;7387851;19;1863;-75
2024/02/24 07:36:10;;;;;;;;;;;;;;;21.01;56.71;100724.97;7387822;19;1536;-75
2024/02/24 07:38:41;;;;;;;;;;;;;;;21.00;56.93;100742.06;7391060;19;1228;-75
2024/02/24 07:41:09;;;;;;;;;;;;;;;20.96;56.62;100742.53;7385928;19;1488;-75
2024/02/24 07:43:38;;;;;;;;;;;;;;;20.83;54.91;100740.16;7383700;19;1432;-75
2024/02/24 07:46:06;;;;;;;;;;;;;;;20.87;54.83;100744.28;7389674;19;1267;-75
2024/02/24 07:48:34;;;;;;;;;;;;;;;20.92;54.82;100736.59;7386599;19;1397;-76
2024/02/24 07:51:03;;;;;;;;;;;;;;;21.05;55.24;100755.94;7388537;19;1369;-76
2024/02/24 07:53:34;;;;;;;;;;;;;;;21.00;55.27;100744.75;7393096;19;1853;-75
2024/02/24 07:56:02;;;;;;;;;;;;;;;20.96;55.56;100743.38;7398875;19;1564;-75
2024/02/24 07:58:30;;;;;;;;;;;;;;;20.96;55.54;100743.38;7393559;19;1532;-76
2024/02/24 08:00:59;;;;;;;;;;;;;;;20.98;55.63;100743.22;7392944;19;1489;-76
2024/02/24 08:03:28;;;;;;;;;;;;;;;21.00;55.57;100741.25;7394636;19;1299;-75
2024/02/24 08:05:56;;;;;;;;;;;;;;;21.04;55.57;100731.88;7396230;19;1623;-76
2024/02/24 08:08:24;;;;;;;;;;;;;;;21.15;55.29;100747.81;7396709;19;1744;-76
2024/02/24 08:10:55;;;;;;;;;;;;;;;21.23;55.12;100752.44;7399803;19;1644;-76
2024/02/24 08:13:24;;;;;;;;;;;;;;;21.27;55.18;100745.75;7395173;19;1857;-76
2024/02/24 08:15:52;;;;;;;;;;;;;;;21.31;55.10;100747.16;7394294;19;1228;-76
2024/02/24 08:18:22;;;;;;;;;;;;;;;21.18;55.57;100741.28;7395882;19;1886;-76
2024/02/24 08:20:50;;;;;;;;;;;;;;;20.80;56.53;100745.84;7394470;19;1328;-76
2024/02/24 08:23:18;;;;;;;;;;;;;;;20.50;57.40;100752.31;7384509;19;1805;-75
2024/02/24 08:25:47;;;;;;;;;;;;;;;20.25;57.87;100739.34;7395885;19;1302;-76
2024/02/24 08:28:18;;;;;;;;;;;;;;;20.14;58.48;100758.31;7393658;19;1591;-75
2024/02/24 08:30:46;;;;;;;;;;;;;;;20.46;57.85;100746.38;7396505;19;1286;-75
2024/02/24 08:33:15;;;;;;;;;;;;;;;20.60;57.32;100694.03;7393516;19;1853;-76
2024/02/24 08:35:43;;;;;;;;;;;;;;;21.09;56.57;100742.16;7396542;19;1191;-75
2024/02/24 08:38:13;;;;;;;;;;;;;;;20.76;57.35;100747.16;7393881;19;1452;-76
2024/02/24 08:40:41;;;;;;;;;;;;;;;20.40;58.13;100741.56;7396040;19;1564;-75
2024/02/24 08:43:10;;;;;;;;;;;;;;;20.20;58.74;100728.19;7395371;19;1433;-75
2024/02/24 08:45:41;;;;;;;;;;;;;;;20.08;59.18;100748.13;7395611;19;1275;-76
2024/02/24 08:48:12;;;;;;;;;;;;;;;20.39;58.39;100727.31;7394745;19;1257;-75
2024/02/24 08:50:40;;;;;;;;;;;;;;;20.79;57.37;100730.72;7394335;19;1551;-75
2024/02/24 08:53:08;;;;;;;;;;;;;;;20.82;57.48;100735.81;7393882;19;1881;-76
2024/02/24 08:55:37;;;;;;;;;;;;;;;20.56;58.21;100736.44;7392237;19;1865;-75
2024/02/24 08:58:05;;;;;;;;;;;;;;;20.34;58.48;100731.41;7393375;19;1211;-75
2024/02/24 09:00:34;;;;;;;;;;;;;;;20.10;57.80;100738.09;7392290;19;1354;-76
2024/02/24 09:03:05;;;;;;;;;;;;;;;20.13;58.74;100739.63;7393107;19;1455;-76
2024/02/24 09:05:35;;;;;;;;;;;;;;;20.79;57.42;100736.97;7391594;19;1182;-76
2024/02/24 09:08:03;;;;;;;;;;;;;;;21.15;57.60;100745.13;7394246;19;1093;-76
2024/02/24 09:10:31;;;;;;;;;;;;;;;20.52;59.60;100758.38;7393438;19;1551;-75
2024/02/24 09:13:00;;;;;;;;;;;;;;;20.25;60.52;100738.47;7388415;19;1850;-75
2024/02/24 09:15:28;;;;;;;;;;;;;;;20.05;60.25;100764.50;7390716;19;1308;-76
2024/02/24 09:17:57;;;;;;;;;;;;;;;19.97;61.32;100734.84;6870519;19;10000514;-75
2024/02/24 09:20:28;;;;;;;;;;;;;;;20.44;59.83;100738.44;7388737;19;1741;-76
2024/02/24 09:22:59;;;;;;;;;;;;;;;20.88;58.75;100737.91;7373107;19;1498;-76
2024/02/24 09:25:28;;;;;;;;;;;;;;;20.72;59.69;100741.22;7385748;19;1461;-77
2024/02/24 09:27:56;;;;;;;;;;;;;;;20.37;60.52;100736.47;7387666;19;1531;-77
2024/02/24 09:30:25;;;;;;;;;;;;;;;20.23;60.69;100729.72;7388664;19;1505;-76
2024/02/24 09:32:53;;;;;;;;;;;;;;;20.07;60.82;100738.38;7383305;19;1875;-75
2024/02/24 09:35:22;;;;;;;;;;;;;;;20.39;60.00;100721.94;7390517;19;1546;-74
2024/02/24 09:37:53;;;;;;;;;;;;;;;21.05;58.63;100726.34;7388033;19;1489;-74
2024/02/24 09:40:21;;;;;;;;;;;;;;;21.34;57.66;100728.00;7391915;19;1568;-74
2024/02/24 09:42:50;;;;;;;;;;;;;;;21.25;58.14;100737.00;7392247;19;1414;-75
2024/02/24 09:45:19;;;;;;;;;;;;;;;20.91;59.58;100740.31;7388699;19;1010;-75
2024/02/24 09:47:48;;;;;;;;;;;;;;;20.59;60.08;100741.56;7387171;19;1860;-74
2024/02/24 09:50:16;;;;;;;;;;;;;;;20.96;59.27;100737.16;7388455;19;1512;-76
2024/02/24 09:52:45;;;;;;;;;;;;;;;21.29;57.81;100716.88;7385495;19;1919;-75
2024/02/24 09:55:16;;;;;;;;;;;;;;;21.29;57.79;100721.38;7384222;19;1357;-76
2024/02/24 09:57:44;;;;;;;;;;;;;;;20.97;59.01;100733.47;7384362;19;1540;-75
2024/02/24 10:00:13;;;;;;;;;;;;;;;20.66;59.56;100726.53;7384633;19;1196;-75
2024/02/24 10:02:41;;;;;;;;;;;;;;;20.55;60.17;100718.63;7387942;19;1480;-75
2024/02/24 10:05:10;;;;;;;;;;;;;;;20.41;60.59;100721.78;7388519;19;1222;-75
2024/02/24 10:07:39;;;;;;;;;;;;;;;20.33;61.11;100727.03;7388898;19;1824;-75
2024/02/24 10:10:08;;;;;;;;;;;;;;;20.53;60.55;100731.38;7388734;19;1198;-75
2024/02/24 10:12:39;;;;;;;;;;;;;;;21.18;59.07;100730.53;7388760;19;1817;-75
2024/02/24 10:15:08;;;;;;;;;;;;;;;21.25;59.33;100720.88;7388576;19;1618;-75
2024/02/24 10:17:36;;;;;;;;;;;;;;;20.86;60.23;100723.75;7389674;19;1086;-75
2024/02/24 10:20:05;;;;;;;;;;;;;;;20.64;61.32;100733.88;7389908;19;1526;-75
2024/02/24 10:22:36;;;;;;;;;;;;;;;20.56;61.34;100731.06;7376936;19;1429;-75
2024/02/24 10:25:04;;;;;;;;;;;;;;;20.52;61.23;100732.34;7388580;19;1670;-75
2024/02/24 10:27:32;;;;;;;;;;;;;;;20.39;56.34;100719.25;7392095;19;1728;-76
2024/02/24 10:30:04;;;;;;;;;;;;;;;20.26;54.95;100724.91;7393639;19;1539;-77
2024/02/24 10:32:34;;;;;;;;;;;;;;;20.20;56.39;100714.75;7392911;19;1872;-77
2024/02/24 10:35:02;;;;;;;;;;;;;;;20.97;53.58;100710.13;7393519;19;1480;-76
2024/02/24 10:37:30;;;;;;;;;;;;;;;21.28;52.67;100723.25;7392881;19;1533;-76
2024/02/24 10:40:00;;;;;;;;;;;;;;;21.08;53.62;100710.91;7393277;19;1815;-76
2024/02/24 10:42:29;;;;;;;;;;;;;;;20.77;54.80;100717.44;7395003;19;939;-76
2024/02/24 10:44:57;;;;;;;;;;;;;;;20.51;55.57;100703.78;7393875;19;1930;-77
2024/02/24 10:47:28;;;;;;;;;;;;;;;20.36;56.25;100713.31;7392241;19;1875;-77
2024/02/24 10:49:57;;;;;;;;;;;;;;;20.25;56.74;100715.19;7392161;19;1729;-76
2024/02/24 10:52:25;;;;;;;;;;;;;;;20.64;56.45;100698.97;7393559;19;1204;-77
2024/02/24 10:54:55;;;;;;;;;;;;;;;21.16;55.37;100711.00;7391202;19;1852;-76
2024/02/24 10:57:24;;;;;;;;;;;;;;;21.02;55.78;100699.75;7392633;19;1927;-77
2024/02/24 10:59:52;;;;;;;;;;;;;;;20.69;56.76;100697.66;7391787;19;1908;-77
2024/02/24 11:02:21;;;;;;;;;;;;;;;20.41;57.54;100706.53;7394445;19;1464;-76
2024/02/24 11:04:53;;;;;;;;;;;;;;;20.30;57.91;100714.75;7390447;19;1853;-76
2024/02/24 11:07:23;;;;;;;;;;;;;;;20.23;58.31;100701.06;7393064;19;1563;-77
2024/02/24 11:09:54;;;;;;;;;;;;;;;20.58;57.58;100704.88;7393467;19;1647;-77
2024/02/24 11:12:23;;;;;;;;;;;;;;;21.23;55.94;100690.59;7392717;19;1350;-76
2024/02/24 11:14:52;;;;;;;;;;;;;;;21.10;56.30;100701.69;7392367;19;1843;-76
2024/02/24 11:17:36;;;;;;;;;;;;;;;20.74;57.06;100700.75;7393667;19;1789;-76
2024/02/24 11:20:07;;;;;;;;;;;;;;;20.44;58.08;100695.47;7393197;19;1454;-76
2024/02/24 11:22:35;;;;;;;;;;;;;;;20.32;58.39;100690.44;7384163;19;1820;-77
2024/02/24 11:25:04;;;;;;;;;;;;;;;20.19;58.67;100691.59;7392181;19;1770;-76
2024/02/24 11:27:34;;;;;;;;;;;;;;;20.44;58.21;100695.47;7392416;19;1897;-77
2024/02/24 11:30:24;;;;;;;;;;;;;;;21.02;57.12;100683.63;7400147;19;1468;-77
2024/02/24 11:32:54;;;;;;;;;;;;;;;20.94;57.34;100691.59;7400079;19;1854;-77
2024/02/24 11:35:26;;;;;;;;;;;;;;;20.61;57.85;100704.66;7399923;19;1070;-78
2024/02/24 11:37:56;;;;;;;;;;;;;;;20.36;58.48;100705.25;7398867;19;1788;-76
2024/02/24 11:40:25;;;;;;;;;;;;;;;20.26;58.71;100686.50;7399203;19;1910;-77
2024/02/24 11:42:54;;;;;;;;;;;;;;;20.16;59.11;100694.56;7400057;19;1035;-77
2024/02/24 11:45:25;;;;;;;;;;;;;;;20.37;58.80;100688.13;7397610;19;1090;-77
2024/02/24 11:47:53;;;;;;;;;;;;;;;20.92;57.57;100684.69;7402168;19;1108;-78
2024/02/24 11:50:22;;;;;;;;;;;;;;;21.05;57.02;100693.25;7401737;19;1839;-77
2024/02/24 11:52:53;;;;;;;;;;;;;;;20.70;57.78;100683.25;7400605;19;1789;-77
2024/02/24 11:55:21;;;;;;;;;;;;;;;20.43;58.26;100682.19;7402470;19;1840;-77
2024/02/24 11:58:07;;;;;;;;;;;;;;;20.31;58.38;100683.34;7411551;19;1473;-76
2024/02/24 12:00:36;;;;;;;;;;;;;;;21.06;55.42;100682.31;7408838;19;1586;-77
2024/02/24 12:03:05;;;;;;;;;;;;;;;21.32;54.52;100678.91;7407337;19;1602;-77
2024/02/24 12:05:33;;;;;;;;;;;;;;;21.55;52.88;100675.81;7407216;19;1000;-76
2024/02/24 12:08:08;;;;;;;;;;;;;;;21.70;52.51;100673.38;7409926;19;1401;-77
2024/02/24 12:10:36;;;;;;;;;;;;;;;21.82;52.21;100681.03;7409827;19;1480;-79
2024/02/24 12:13:06;;;;;;;;;;;;;;;21.94;50.57;100670.03;7407229;19;1536;-79
2024/02/24 12:15:35;;;;;;;;;;;;;;;21.77;50.33;100661.84;7402371;19;1363;-79
2024/02/24 12:18:04;;;;;;;;;;;;;;;21.81;50.86;100654.31;6886349;19;10000207;-77
2024/02/24 12:20:33;;;;;;;;;;;;;;;22.09;49.91;100663.09;7386665;19;1819;-76
2024/02/24 12:23:07;;;;;;;;;;;;;;;22.01;50.99;100671.94;7379181;19;1855;-77
2024/02/24 12:25:36;;;;;;;;;;;;;;;21.78;52.16;100666.22;7391860;19;1450;-76
2024/02/24 12:28:05;;;;;;;;;;;;;;;21.06;51.77;100666.19;7391411;19;1732;-77
2024/02/24 12:30:36;;;;;;;;;;;;;;;20.64;52.55;100664.03;7393925;19;1312;-77
2024/02/24 12:33:05;;;;;;;;;;;;;;;20.59;51.49;100662.78;7397161;19;1507;-77
2024/02/24 12:35:33;;;;;;;;;;;;;;;20.95;49.91;100657.50;7391246;19;1883;-77
2024/02/24 12:38:03;;;;;;;;;;;;;;;20.98;49.85;100657.19;7394704;19;1755;-77
2024/02/24 12:40:34;;;;;;;;;;;;;;;20.94;49.99;100662.03;7394615;19;1590;-77
2024/02/24 12:43:06;;;;;;;;;;;;;;;20.77;49.99;100661.00;7397195;19;1566;-77
2024/02/24 12:45:34;;;;;;;;;;;;;;;20.66;49.98;100667.41;7395385;19;1692;-77
2024/02/24 12:48:03;;;;;;;;;;;;;;;20.63;49.85;100662.34;7394207;19;1150;-77
2024/02/24 12:50:31;;;;;;;;;;;;;;;20.80;48.91;100659.84;7396875;19;1824;-77
2024/02/24 12:53:00;;;;;;;;;;;;;;;20.89;49.02;100652.72;7394085;19;1817;-77
2024/02/24 12:55:28;;;;;;;;;;;;;;;20.81;49.32;100661.53;7393985;19;1871;-77